sensor_id;sensor_type;location;lat;lon;timestamp;pressure;altitude;pressure_sealevel;temperature;humidity
39435;BME280;30098;51.880;-0.518;2022-08-03T00:02:22;100375.78;;;24.62;49.59
39435;BME280;30098;51.880;-0.518;2022-08-03T00:04:48;100379.66;;;24.61;49.87
39435;BME280;30098;51.880;-0.518;2022-08-03T00:07:14;100374.16;;;24.61;49.92
39435;BME280;30098;51.880;-0.518;2022-08-03T00:09:39;100368.22;;;24.58;49.57
39435;BME280;30098;51.880;-0.518;2022-08-03T00:12:05;100367.75;;;24.56;49.56
39435;BME280;30098;51.880;-0.518;2022-08-03T00:14:31;100363.03;;;24.57;49.54
39435;BME280;30098;51.880;-0.518;2022-08-03T00:16:56;100365.00;;;24.56;49.50
39435;BME280;30098;51.880;-0.518;2022-08-03T00:19:22;100368.13;;;24.55;49.75
39435;BME280;30098;51.880;-0.518;2022-08-03T00:21:48;100365.69;;;24.53;49.56
39435;BME280;30098;51.880;-0.518;2022-08-03T00:24:13;100368.13;;;24.55;49.74
39435;BME280;30098;51.880;-0.518;2022-08-03T00:26:39;100364.13;;;24.52;49.90
39435;BME280;30098;51.880;-0.518;2022-08-03T00:29:04;100361.00;;;24.54;49.77
39435;BME280;30098;51.880;-0.518;2022-08-03T00:31:30;100347.41;;;24.45;49.72
39435;BME280;30098;51.880;-0.518;2022-08-03T00:33:55;100354.69;;;24.53;49.76
39435;BME280;30098;51.880;-0.518;2022-08-03T00:36:21;100348.38;;;24.53;50.04
39435;BME280;30098;51.880;-0.518;2022-08-03T00:38:46;100349.53;;;24.52;50.16
39435;BME280;30098;51.880;-0.518;2022-08-03T00:41:12;100341.28;;;24.52;49.72
39435;BME280;30098;51.880;-0.518;2022-08-03T00:43:37;100342.41;;;24.51;50.00
39435;BME280;30098;51.880;-0.518;2022-08-03T00:46:03;100341.63;;;24.50;49.99
39435;BME280;30098;51.880;-0.518;2022-08-03T00:48:28;100335.66;;;24.48;50.21
39435;BME280;30098;51.880;-0.518;2022-08-03T00:50:54;100337.28;;;24.49;50.03
39435;BME280;30098;51.880;-0.518;2022-08-03T00:53:19;100333.72;;;24.49;49.73
39435;BME280;30098;51.880;-0.518;2022-08-03T00:55:45;100330.16;;;24.48;49.58
39435;BME280;30098;51.880;-0.518;2022-08-03T00:58:11;100338.41;;;24.48;49.76
39435;BME280;30098;51.880;-0.518;2022-08-03T01:00:38;100323.31;;;24.42;49.72
39435;BME280;30098;51.880;-0.518;2022-08-03T01:03:06;100329.69;;;24.46;49.68
39435;BME280;30098;51.880;-0.518;2022-08-03T01:05:55;100330.50;;;24.47;49.86
39435;BME280;30098;51.880;-0.518;2022-08-03T01:11:18;100315.63;;;24.35;49.97
39435;BME280;30098;51.880;-0.518;2022-08-03T01:14:05;100338.31;;;24.45;49.77
39435;BME280;30098;51.880;-0.518;2022-08-03T01:30:28;100335.00;;;24.39;50.18
39435;BME280;30098;51.880;-0.518;2022-08-03T01:33:01;100329.16;;;24.40;49.82
39435;BME280;30098;51.880;-0.518;2022-08-03T01:36:03;100329.16;;;24.40;49.79
39435;BME280;30098;51.880;-0.518;2022-08-03T01:38:33;100332.59;;;24.37;49.91
39435;BME280;30098;51.880;-0.518;2022-08-03T01:41:11;100325.94;;;24.38;50.03
39435;BME280;30098;51.880;-0.518;2022-08-03T01:43:39;100335.34;;;24.37;50.03
39435;BME280;30098;51.880;-0.518;2022-08-03T01:46:07;100338.47;;;24.36;50.13
39435;BME280;30098;51.880;-0.518;2022-08-03T01:48:39;100331.34;;;24.35;49.94
39435;BME280;30098;51.880;-0.518;2022-08-03T01:51:08;100324.94;;;24.31;50.32
39435;BME280;30098;51.880;-0.518;2022-08-03T01:53:36;100331.34;;;24.35;50.08
39435;BME280;30098;51.880;-0.518;2022-08-03T01:56:03;100330.53;;;24.34;50.00
39435;BME280;30098;51.880;-0.518;2022-08-03T01:58:31;100328.97;;;24.33;50.09
39435;BME280;30098;51.880;-0.518;2022-08-03T02:00:59;100325.38;;;24.33;49.98
39435;BME280;30098;51.880;-0.518;2022-08-03T02:03:27;100334.47;;;24.33;50.00
39435;BME280;30098;51.880;-0.518;2022-08-03T02:05:56;100310.28;;;24.26;49.80
39435;BME280;30098;51.880;-0.518;2022-08-03T02:08:24;100323.44;;;24.33;50.04
39435;BME280;30098;51.880;-0.518;2022-08-03T02:10:51;100320.94;;;24.28;50.02
39435;BME280;30098;51.880;-0.518;2022-08-03T02:13:19;100320.25;;;24.31;49.98
39435;BME280;30098;51.880;-0.518;2022-08-03T02:15:47;100320.25;;;24.31;49.94
39435;BME280;30098;51.880;-0.518;2022-08-03T02:18:13;100318.63;;;24.30;49.98
39435;BME280;30098;51.880;-0.518;2022-08-03T02:20:41;100327.69;;;24.31;49.93
39435;BME280;30098;51.880;-0.518;2022-08-03T02:23:08;100323.34;;;24.30;49.83
39435;BME280;30098;51.880;-0.518;2022-08-03T02:25:38;100253.19;;;23.83;49.78
39435;BME280;30098;51.880;-0.518;2022-08-03T02:28:11;100331.59;;;24.30;49.84
39435;BME280;30098;51.880;-0.518;2022-08-03T02:30:40;100323.69;;;24.28;50.04
39435;BME280;30098;51.880;-0.518;2022-08-03T02:33:11;100323.69;;;24.28;49.85
39435;BME280;30098;51.880;-0.518;2022-08-03T02:35:38;100325.66;;;24.27;50.10
39435;BME280;30098;51.880;-0.518;2022-08-03T02:38:06;100324.03;;;24.26;49.88
39435;BME280;30098;51.880;-0.518;2022-08-03T02:40:32;100328.75;;;24.26;50.27
39435;BME280;30098;51.880;-0.518;2022-08-03T02:43:02;100324.03;;;24.26;49.85
39435;BME280;30098;51.880;-0.518;2022-08-03T02:45:30;100327.16;;;24.25;50.16
39435;BME280;30098;51.880;-0.518;2022-08-03T02:47:59;100313.41;;;24.13;50.04
39435;BME280;30098;51.880;-0.518;2022-08-03T02:50:28;100315.22;;;24.21;50.17
39435;BME280;30098;51.880;-0.518;2022-08-03T02:52:55;100313.72;;;24.23;50.27
39435;BME280;30098;51.880;-0.518;2022-08-03T02:55:24;100316.47;;;24.23;50.05
39435;BME280;30098;51.880;-0.518;2022-08-03T02:57:50;100321.19;;;24.23;50.10
39435;BME280;30098;51.880;-0.518;2022-08-03T03:00:17;100307.69;;;24.18;49.97
39435;BME280;30098;51.880;-0.518;2022-08-03T03:02:43;100302.59;;;24.20;50.02
39435;BME280;30098;51.880;-0.518;2022-08-03T03:05:10;100308.56;;;24.22;49.88
39435;BME280;30098;51.880;-0.518;2022-08-03T03:07:37;100306.97;;;24.21;50.27
39435;BME280;30098;51.880;-0.518;2022-08-03T03:10:05;100301.34;;;24.17;50.02
39435;BME280;30098;51.880;-0.518;2022-08-03T03:12:32;100308.94;;;24.20;49.99
39435;BME280;30098;51.880;-0.518;2022-08-03T03:14:57;100294.50;;;24.11;50.17
39435;BME280;30098;51.880;-0.518;2022-08-03T03:17:23;100317.19;;;24.20;49.86
39435;BME280;30098;51.880;-0.518;2022-08-03T03:19:50;100285.69;;;24.05;50.03
39435;BME280;30098;51.880;-0.518;2022-08-03T03:22:17;100311.22;;;24.18;50.09
39435;BME280;30098;51.880;-0.518;2022-08-03T03:24:43;100299.41;;;24.18;50.13
39435;BME280;30098;51.880;-0.518;2022-08-03T03:27:10;100287.38;;;24.10;49.87
39435;BME280;30098;51.880;-0.518;2022-08-03T03:29:38;100289.34;;;24.09;50.07
39435;BME280;30098;51.880;-0.518;2022-08-03T03:32:04;100306.06;;;24.17;49.88
39435;BME280;30098;51.880;-0.518;2022-08-03T03:34:30;100300.56;;;24.17;49.93
39435;BME280;30098;51.880;-0.518;2022-08-03T03:36:56;100292.00;;;24.06;50.22
39435;BME280;30098;51.880;-0.518;2022-08-03T03:39:21;100305.25;;;24.16;50.14
39435;BME280;30098;51.880;-0.518;2022-08-03T03:41:47;100304.25;;;24.08;50.00
39435;BME280;30098;51.880;-0.518;2022-08-03T03:44:13;100312.72;;;24.16;50.13
39435;BME280;30098;51.880;-0.518;2022-08-03T03:46:38;100308.34;;;24.15;50.26
39435;BME280;30098;51.880;-0.518;2022-08-03T03:49:05;100306.75;;;24.14;50.20
39435;BME280;30098;51.880;-0.518;2022-08-03T03:51:31;100302.41;;;24.13;50.00
39435;BME280;30098;51.880;-0.518;2022-08-03T03:53:58;100313.41;;;24.13;49.97
39435;BME280;30098;51.880;-0.518;2022-08-03T03:56:25;100310.66;;;24.13;49.81
39435;BME280;30098;51.880;-0.518;2022-08-03T03:58:50;100321.66;;;24.13;50.11
39435;BME280;30098;51.880;-0.518;2022-08-03T04:01:16;100317.34;;;24.12;49.82
39435;BME280;30098;51.880;-0.518;2022-08-03T04:03:42;100320.09;;;24.12;50.15
39435;BME280;30098;51.880;-0.518;2022-08-03T04:06:07;100296.56;;;24.02;50.06
39435;BME280;30098;51.880;-0.518;2022-08-03T04:08:52;100318.47;;;24.10;50.26
39435;BME280;30098;51.880;-0.518;2022-08-03T04:11:39;100319.63;;;24.09;49.98
39435;BME280;30098;51.880;-0.518;2022-08-03T04:14:09;100316.88;;;24.09;50.20
39435;BME280;30098;51.880;-0.518;2022-08-03T04:16:41;100321.22;;;24.10;50.07
39435;BME280;30098;51.880;-0.518;2022-08-03T04:19:12;100312.66;;;24.00;49.91
39435;BME280;30098;51.880;-0.518;2022-08-03T04:21:40;100314.13;;;24.09;50.10
39435;BME280;30098;51.880;-0.518;2022-08-03T04:24:09;100312.88;;;24.07;49.93
39435;BME280;30098;51.880;-0.518;2022-08-03T04:26:39;100321.13;;;24.07;50.14
39435;BME280;30098;51.880;-0.518;2022-08-03T04:29:05;100317.56;;;24.06;50.20
39435;BME280;30098;51.880;-0.518;2022-08-03T04:31:32;100322.25;;;24.06;49.98
39435;BME280;30098;51.880;-0.518;2022-08-03T04:34:00;100318.69;;;24.05;50.06
39435;BME280;30098;51.880;-0.518;2022-08-03T04:36:30;100320.66;;;24.05;49.99
39435;BME280;30098;51.880;-0.518;2022-08-03T04:39:07;100309.91;;;24.00;49.93
39435;BME280;30098;51.880;-0.518;2022-08-03T04:41:35;100313.44;;;24.00;50.00
39435;BME280;30098;51.880;-0.518;2022-08-03T04:44:01;100324.56;;;24.04;49.92
39435;BME280;30098;51.880;-0.518;2022-08-03T04:46:31;100325.38;;;24.04;49.93
39435;BME280;30098;51.880;-0.518;2022-08-03T04:49:00;100324.91;;;24.02;49.90
39435;BME280;30098;51.880;-0.518;2022-08-03T04:51:25;100321.81;;;24.04;49.87
39435;BME280;30098;51.880;-0.518;2022-08-03T04:53:51;100328.44;;;24.03;49.86
39435;BME280;30098;51.880;-0.518;2022-08-03T04:56:17;100319.84;;;23.92;50.05
39435;BME280;30098;51.880;-0.518;2022-08-03T04:58:42;100330.66;;;23.97;50.06
39435;BME280;30098;51.880;-0.518;2022-08-03T05:01:08;100338.66;;;24.02;49.91
39435;BME280;30098;51.880;-0.518;2022-08-03T05:03:33;100333.16;;;24.02;50.13
39435;BME280;30098;51.880;-0.518;2022-08-03T05:05:59;100328.81;;;24.01;49.94
39435;BME280;30098;51.880;-0.518;2022-08-03T05:08:24;100333.53;;;24.01;50.11
39435;BME280;30098;51.880;-0.518;2022-08-03T05:10:50;100332.69;;;24.00;50.23
39435;BME280;30098;51.880;-0.518;2022-08-03T05:13:16;100335.47;;;24.00;50.23
39435;BME280;30098;51.880;-0.518;2022-08-03T05:15:41;100331.56;;;24.01;50.05
39435;BME280;30098;51.880;-0.518;2022-08-03T05:18:07;100335.81;;;23.99;50.09
39435;BME280;30098;51.880;-0.518;2022-08-03T05:20:32;100304.28;;;23.84;49.96
39435;BME280;30098;51.880;-0.518;2022-08-03T05:22:58;100334.66;;;24.00;50.03
39435;BME280;30098;51.880;-0.518;2022-08-03T05:25:26;100338.56;;;23.99;50.05
39435;BME280;30098;51.880;-0.518;2022-08-03T05:27:51;100336.97;;;23.98;50.09
39435;BME280;30098;51.880;-0.518;2022-08-03T05:30:17;100339.72;;;23.98;50.06
39435;BME280;30098;51.880;-0.518;2022-08-03T05:32:42;100343.59;;;23.97;50.14
39435;BME280;30098;51.880;-0.518;2022-08-03T05:35:08;100354.97;;;23.95;50.02
39435;BME280;30098;51.880;-0.518;2022-08-03T05:37:34;100358.19;;;23.97;49.92
39435;BME280;30098;51.880;-0.518;2022-08-03T05:39:59;100351.06;;;23.96;49.81
39435;BME280;30098;51.880;-0.518;2022-08-03T05:42:24;100355.44;;;23.97;50.17
39435;BME280;30098;51.880;-0.518;2022-08-03T05:44:50;100342.34;;;23.94;50.09
39435;BME280;30098;51.880;-0.518;2022-08-03T05:47:16;100347.50;;;23.95;49.84
39435;BME280;30098;51.880;-0.518;2022-08-03T05:49:41;100339.25;;;23.95;49.99
39435;BME280;30098;51.880;-0.518;2022-08-03T05:52:07;100342.09;;;23.87;50.12
39435;BME280;30098;51.880;-0.518;2022-08-03T05:54:32;100343.94;;;23.95;50.22
39435;BME280;30098;51.880;-0.518;2022-08-03T05:56:58;100347.34;;;23.92;49.97
39435;BME280;30098;51.880;-0.518;2022-08-03T05:59:23;100337.50;;;23.91;49.83
39435;BME280;30098;51.880;-0.518;2022-08-03T06:01:50;100349.81;;;23.93;49.92
39435;BME280;30098;51.880;-0.518;2022-08-03T06:04:16;100318.16;;;23.75;49.98
39435;BME280;30098;51.880;-0.518;2022-08-03T06:06:41;100350.09;;;23.92;49.81
39435;BME280;30098;51.880;-0.518;2022-08-03T06:09:08;100353.69;;;23.92;49.93
39435;BME280;30098;51.880;-0.518;2022-08-03T06:11:35;100343.59;;;23.84;49.87
39435;BME280;30098;51.880;-0.518;2022-08-03T06:14:01;100347.72;;;23.90;50.08
39435;BME280;30098;51.880;-0.518;2022-08-03T06:16:26;100356.75;;;23.91;49.99
39435;BME280;30098;51.880;-0.518;2022-08-03T06:18:52;100356.75;;;23.91;49.88
39435;BME280;30098;51.880;-0.518;2022-08-03T06:21:17;100353.78;;;23.84;49.96
39435;BME280;30098;51.880;-0.518;2022-08-03T06:23:44;100361.47;;;23.90;49.88
39435;BME280;30098;51.880;-0.518;2022-08-03T06:26:10;100351.97;;;23.88;49.78
39435;BME280;30098;51.880;-0.518;2022-08-03T06:28:36;100363.44;;;23.90;49.90
39435;BME280;30098;51.880;-0.518;2022-08-03T06:31:02;100362.97;;;23.88;50.05
39435;BME280;30098;51.880;-0.518;2022-08-03T06:33:28;100366.50;;;23.88;50.02
39435;BME280;30098;51.880;-0.518;2022-08-03T06:35:53;100372.00;;;23.88;50.08
39435;BME280;30098;51.880;-0.518;2022-08-03T06:38:19;100370.06;;;23.89;50.07
39435;BME280;30098;51.880;-0.518;2022-08-03T06:40:44;100354.03;;;23.78;49.93
39435;BME280;30098;51.880;-0.518;2022-08-03T06:43:10;100280.28;;;23.31;49.78
39435;BME280;30098;51.880;-0.518;2022-08-03T06:45:36;100353.66;;;23.80;50.07
39435;BME280;30098;51.880;-0.518;2022-08-03T06:48:11;100362.97;;;23.88;49.90
39435;BME280;30098;51.880;-0.518;2022-08-03T06:50:39;100361.34;;;23.87;50.11
39435;BME280;30098;51.880;-0.518;2022-08-03T06:53:06;100358.59;;;23.87;50.01
39435;BME280;30098;51.880;-0.518;2022-08-03T06:55:31;100340.03;;;23.71;50.13
39435;BME280;30098;51.880;-0.518;2022-08-03T06:57:57;100364.47;;;23.85;50.10
39435;BME280;30098;51.880;-0.518;2022-08-03T07:00:23;100371.47;;;23.83;49.82
39435;BME280;30098;51.880;-0.518;2022-08-03T07:02:49;100276.13;;;23.25;50.10
39435;BME280;30098;51.880;-0.518;2022-08-03T07:05:15;100374.66;;;23.85;50.16
39435;BME280;30098;51.880;-0.518;2022-08-03T07:07:41;100371.91;;;23.85;50.22
39435;BME280;30098;51.880;-0.518;2022-08-03T07:10:07;100366.41;;;23.85;50.22
39435;BME280;30098;51.880;-0.518;2022-08-03T07:12:34;100360.88;;;23.85;50.14
39435;BME280;30098;51.880;-0.518;2022-08-03T07:15:00;100359.75;;;23.86;49.98
39435;BME280;30098;51.880;-0.518;2022-08-03T07:17:30;100341.53;;;23.69;49.91
39435;BME280;30098;51.880;-0.518;2022-08-03T07:19:56;100277.97;;;23.33;49.86
39435;BME280;30098;51.880;-0.518;2022-08-03T07:22:22;100365.00;;;23.91;49.90
39435;BME280;30098;51.880;-0.518;2022-08-03T07:24:47;100365.50;;;23.93;49.75
39435;BME280;30098;51.880;-0.518;2022-08-03T07:27:15;100366.75;;;23.95;49.68
39435;BME280;30098;51.880;-0.518;2022-08-03T07:29:40;100368.38;;;23.97;49.51
39435;BME280;30098;51.880;-0.518;2022-08-03T07:32:06;100372.72;;;23.98;49.57
39435;BME280;30098;51.880;-0.518;2022-08-03T07:34:31;100364.94;;;24.00;49.68
39435;BME280;30098;51.880;-0.518;2022-08-03T07:36:57;100365.38;;;24.02;49.57
39435;BME280;30098;51.880;-0.518;2022-08-03T07:39:22;100366.97;;;24.03;49.74
39435;BME280;30098;51.880;-0.518;2022-08-03T07:41:48;100286.66;;;23.47;49.63
39435;BME280;30098;51.880;-0.518;2022-08-03T07:44:16;100335.44;;;23.88;49.66
39435;BME280;30098;51.880;-0.518;2022-08-03T07:46:42;100367.09;;;24.06;49.49
39435;BME280;30098;51.880;-0.518;2022-08-03T07:49:08;100369.41;;;24.04;49.68
39435;BME280;30098;51.880;-0.518;2022-08-03T07:51:33;100375.81;;;24.08;49.61
39435;BME280;30098;51.880;-0.518;2022-08-03T07:53:59;100378.19;;;24.10;49.32
39435;BME280;30098;51.880;-0.518;2022-08-03T07:56:25;100367.19;;;24.10;49.57
39435;BME280;30098;51.880;-0.518;2022-08-03T07:58:51;100306.81;;;23.64;49.51
39435;BME280;30098;51.880;-0.518;2022-08-03T08:01:17;100378.66;;;24.12;49.17
39435;BME280;30098;51.880;-0.518;2022-08-03T08:03:46;100370.66;;;24.07;49.36
39435;BME280;30098;51.880;-0.518;2022-08-03T08:06:12;100376.47;;;24.18;49.31
39435;BME280;30098;51.880;-0.518;2022-08-03T08:08:38;100369.38;;;24.17;49.10
39435;BME280;30098;51.880;-0.518;2022-08-03T08:11:05;100356.06;;;24.06;49.22
39435;BME280;30098;51.880;-0.518;2022-08-03T08:13:31;100367.06;;;24.19;49.30
39435;BME280;30098;51.880;-0.518;2022-08-03T08:15:57;100372.59;;;24.19;49.87
39435;BME280;30098;51.880;-0.518;2022-08-03T08:18:22;100377.72;;;24.20;49.90
39435;BME280;30098;51.880;-0.518;2022-08-03T08:20:49;100369.47;;;24.20;50.20
39435;BME280;30098;51.880;-0.518;2022-08-03T08:23:15;100381.28;;;24.21;50.36
39435;BME280;30098;51.880;-0.518;2022-08-03T08:25:47;100374.63;;;24.22;50.74
39435;BME280;30098;51.880;-0.518;2022-08-03T08:28:13;100369.84;;;24.19;51.20
39435;BME280;30098;51.880;-0.518;2022-08-03T08:30:38;100379.78;;;24.23;51.40
39435;BME280;30098;51.880;-0.518;2022-08-03T08:33:04;100370.38;;;24.24;51.09
39435;BME280;30098;51.880;-0.518;2022-08-03T08:35:30;100376.69;;;24.25;51.38
39435;BME280;30098;51.880;-0.518;2022-08-03T08:37:55;100299.69;;;23.75;51.29
39435;BME280;30098;51.880;-0.518;2022-08-03T08:40:21;100379.09;;;24.26;51.64
39435;BME280;30098;51.880;-0.518;2022-08-03T08:42:47;100366.81;;;24.24;51.38
39435;BME280;30098;51.880;-0.518;2022-08-03T08:45:13;100374.06;;;24.29;51.43
39435;BME280;30098;51.880;-0.518;2022-08-03T08:47:43;100366.22;;;24.31;51.42
39435;BME280;30098;51.880;-0.518;2022-08-03T08:50:09;100367.50;;;24.33;51.38
39435;BME280;30098;51.880;-0.518;2022-08-03T08:52:35;100376.56;;;24.34;51.70
39435;BME280;30098;51.880;-0.518;2022-08-03T08:55:05;100380.91;;;24.35;51.75
39435;BME280;30098;51.880;-0.518;2022-08-03T08:57:37;100377.00;;;24.36;51.85
39435;BME280;30098;51.880;-0.518;2022-08-03T09:00:08;100382.63;;;24.39;51.47
39435;BME280;30098;51.880;-0.518;2022-08-03T09:02:37;100377.13;;;24.39;51.66
39435;BME280;30098;51.880;-0.518;2022-08-03T09:05:03;100372.03;;;24.41;51.83
39435;BME280;30098;51.880;-0.518;2022-08-03T09:07:28;100374.47;;;24.43;51.99
39435;BME280;30098;51.880;-0.518;2022-08-03T09:09:54;100366.31;;;24.47;52.15
39435;BME280;30098;51.880;-0.518;2022-08-03T09:12:20;100362.22;;;24.40;52.75
39435;BME280;30098;51.880;-0.518;2022-08-03T09:14:46;100275.03;;;23.91;52.98
39435;BME280;30098;51.880;-0.518;2022-08-03T09:17:12;100367.66;;;24.53;52.95
39435;BME280;30098;51.880;-0.518;2022-08-03T09:19:37;100371.66;;;24.55;53.71
39435;BME280;30098;51.880;-0.518;2022-08-03T09:22:12;100288.31;;;24.02;53.28
39435;BME280;30098;51.880;-0.518;2022-08-03T09:25:00;100380.13;;;24.63;53.27
39435;BME280;30098;51.880;-0.518;2022-08-03T09:27:25;100374.75;;;24.66;53.19
39435;BME280;30098;51.880;-0.518;2022-08-03T09:29:52;100377.16;;;24.68;52.92
39435;BME280;30098;51.880;-0.518;2022-08-03T09:32:23;100384.03;;;24.74;52.92
39435;BME280;30098;51.880;-0.518;2022-08-03T09:34:51;100385.28;;;24.77;52.72
39435;BME280;30098;51.880;-0.518;2022-08-03T09:37:19;100389.28;;;24.79;52.96
39435;BME280;30098;51.880;-0.518;2022-08-03T09:39:45;100381.47;;;24.81;52.76
39435;BME280;30098;51.880;-0.518;2022-08-03T09:42:14;100389.84;;;24.85;53.04
39435;BME280;30098;51.880;-0.518;2022-08-03T09:44:46;100385.13;;;24.85;52.72
39435;BME280;30098;51.880;-0.518;2022-08-03T09:47:14;100385.22;;;24.89;52.86
39435;BME280;30098;51.880;-0.518;2022-08-03T09:49:41;100376.25;;;24.92;52.54
39435;BME280;30098;51.880;-0.518;2022-08-03T09:52:16;100382.66;;;24.96;52.99
39435;BME280;30098;51.880;-0.518;2022-08-03T09:54:44;100386.66;;;24.99;53.80
39435;BME280;30098;51.880;-0.518;2022-08-03T09:57:22;100385.50;;;25.00;52.98
39435;BME280;30098;51.880;-0.518;2022-08-03T09:59:49;100380.53;;;25.05;53.37
39435;BME280;30098;51.880;-0.518;2022-08-03T10:02:22;100377.06;;;25.09;52.45
39435;BME280;30098;51.880;-0.518;2022-08-03T10:04:49;100373.59;;;25.12;52.99
39435;BME280;30098;51.880;-0.518;2022-08-03T10:07:19;100301.75;;;24.60;53.27
39435;BME280;30098;51.880;-0.518;2022-08-03T10:09:59;100380.47;;;25.18;53.04
39435;BME280;30098;51.880;-0.518;2022-08-03T10:12:26;100380.09;;;25.19;52.63
39435;BME280;30098;51.880;-0.518;2022-08-03T10:14:52;100384.13;;;25.22;52.04
39435;BME280;30098;51.880;-0.518;2022-08-03T10:17:19;100380.19;;;25.23;52.07
39435;BME280;30098;51.880;-0.518;2022-08-03T10:19:45;100381.47;;;25.26;51.92
39435;BME280;30098;51.880;-0.518;2022-08-03T10:22:21;100373.63;;;25.28;52.03
39435;BME280;30098;51.880;-0.518;2022-08-03T10:27:21;100362.94;;;25.26;52.10
39435;BME280;30098;51.880;-0.518;2022-08-03T10:29:51;100372.91;;;25.31;51.76
39435;BME280;30098;51.880;-0.518;2022-08-03T10:32:23;100372.66;;;25.36;52.14
39435;BME280;30098;51.880;-0.518;2022-08-03T10:34:50;100374.25;;;25.37;52.03
39435;BME280;30098;51.880;-0.518;2022-08-03T10:37:20;100374.25;;;25.37;51.85
39435;BME280;30098;51.880;-0.518;2022-08-03T10:39:48;100370.81;;;25.40;51.87
39435;BME280;30098;51.880;-0.518;2022-08-03T10:42:25;100348.38;;;25.26;52.20
39435;BME280;30098;51.880;-0.518;2022-08-03T10:45:03;100368.25;;;25.47;52.17
39435;BME280;30098;51.880;-0.518;2022-08-03T10:47:30;100367.16;;;25.52;52.52
39435;BME280;30098;51.880;-0.518;2022-08-03T10:49:57;100355.41;;;25.55;52.40
39435;BME280;30098;51.880;-0.518;2022-08-03T10:52:23;100347.50;;;25.53;51.77
39435;BME280;30098;51.880;-0.518;2022-08-03T10:54:48;100347.69;;;25.61;51.31
39435;BME280;30098;51.880;-0.518;2022-08-03T10:57:43;100358.78;;;25.64;51.06
39435;BME280;30098;51.880;-0.518;2022-08-03T11:00:11;100351.38;;;25.68;51.62
39435;BME280;30098;51.880;-0.518;2022-08-03T11:03:02;100351.09;;;25.74;51.69
39435;BME280;30098;51.880;-0.518;2022-08-03T11:05:29;100360.28;;;25.78;51.31
39435;BME280;30098;51.880;-0.518;2022-08-03T11:08:24;100354.84;;;25.81;51.40
39435;BME280;30098;51.880;-0.518;2022-08-03T11:10:59;100319.81;;;25.66;51.07
39435;BME280;30098;51.880;-0.518;2022-08-03T11:13:26;100348.69;;;25.88;51.14
39435;BME280;30098;51.880;-0.518;2022-08-03T11:15:56;100349.94;;;25.91;50.86
39435;BME280;30098;51.880;-0.518;2022-08-03T11:18:22;100353.94;;;25.93;50.85
39435;BME280;30098;51.880;-0.518;2022-08-03T11:23:15;100355.16;;;25.96;50.77
39435;BME280;30098;51.880;-0.518;2022-08-03T11:26:14;100350.88;;;25.98;50.89
39435;BME280;30098;51.880;-0.518;2022-08-03T11:28:41;100348.56;;;26.00;50.72
39435;BME280;30098;51.880;-0.518;2022-08-03T11:34:08;100352.19;;;26.05;50.61
39435;BME280;30098;51.880;-0.518;2022-08-03T11:39:43;100346.34;;;26.06;50.66
39435;BME280;30098;51.880;-0.518;2022-08-03T11:44:58;100356.75;;;26.13;50.15
39435;BME280;30098;51.880;-0.518;2022-08-03T11:47:26;100332.31;;;25.95;50.47
39435;BME280;30098;51.880;-0.518;2022-08-03T11:49:54;100359.97;;;26.15;50.44
39435;BME280;30098;51.880;-0.518;2022-08-03T11:52:21;100358.81;;;26.16;50.30
39435;BME280;30098;51.880;-0.518;2022-08-03T11:54:51;100360.03;;;26.19;50.23
39435;BME280;30098;51.880;-0.518;2022-08-03T11:57:32;100360.81;;;26.19;50.35
39435;BME280;30098;51.880;-0.518;2022-08-03T11:59:58;100360.47;;;26.21;50.20
39435;BME280;30098;51.880;-0.518;2022-08-03T12:02:23;100369.91;;;26.20;50.45
39435;BME280;30098;51.880;-0.518;2022-08-03T12:04:52;100353.34;;;26.20;50.47
39435;BME280;30098;51.880;-0.518;2022-08-03T12:07:18;100356.81;;;26.16;50.30
39435;BME280;30098;51.880;-0.518;2022-08-03T12:10:06;100360.81;;;26.19;50.21
39435;BME280;30098;51.880;-0.518;2022-08-03T12:12:32;100367.16;;;26.20;50.31
39435;BME280;30098;51.880;-0.518;2022-08-03T12:14:57;100354.44;;;26.15;50.24
39435;BME280;30098;51.880;-0.518;2022-08-03T12:17:30;100369.56;;;26.21;50.33
39435;BME280;30098;51.880;-0.518;2022-08-03T12:19:56;100359.59;;;26.16;50.39
39435;BME280;30098;51.880;-0.518;2022-08-03T12:22:42;100370.00;;;26.23;50.27
39435;BME280;30098;51.880;-0.518;2022-08-03T12:25:08;100366.06;;;26.24;50.22
39435;BME280;30098;51.880;-0.518;2022-08-03T12:27:34;100373.19;;;26.25;50.36
39435;BME280;30098;51.880;-0.518;2022-08-03T12:30:01;100379.50;;;26.26;50.26
39435;BME280;30098;51.880;-0.518;2022-08-03T12:32:27;100381.91;;;26.27;50.13
39435;BME280;30098;51.880;-0.518;2022-08-03T12:34:54;100374.44;;;26.28;50.05
39435;BME280;30098;51.880;-0.518;2022-08-03T12:37:23;100287.31;;;25.75;50.30
39435;BME280;30098;51.880;-0.518;2022-08-03T12:39:54;100364.97;;;26.29;50.17
39435;BME280;30098;51.880;-0.518;2022-08-03T12:42:20;100364.19;;;26.28;50.05
39435;BME280;30098;51.880;-0.518;2022-08-03T12:44:47;100369.34;;;26.30;50.27
39435;BME280;30098;51.880;-0.518;2022-08-03T12:47:15;100372.09;;;26.30;50.21
39435;BME280;30098;51.880;-0.518;2022-08-03T12:49:48;100364.25;;;26.32;50.37
39435;BME280;30098;51.880;-0.518;2022-08-03T12:52:14;100374.94;;;26.34;50.00
39435;BME280;30098;51.880;-0.518;2022-08-03T12:54:40;100370.22;;;26.34;50.24
39435;BME280;30098;51.880;-0.518;2022-08-03T12:57:11;100355.25;;;26.35;50.16
39435;BME280;30098;51.880;-0.518;2022-08-03T12:59:39;100333.94;;;26.16;50.52
39435;BME280;30098;51.880;-0.518;2022-08-03T13:02:22;100356.75;;;26.32;50.46
39435;BME280;30098;51.880;-0.518;2022-08-03T13:04:48;100333.59;;;26.18;50.49
39435;BME280;30098;51.880;-0.518;2022-08-03T13:07:15;100362.78;;;26.38;50.28
39435;BME280;30098;51.880;-0.518;2022-08-03T13:12:18;100353.44;;;26.43;50.45
39435;BME280;30098;51.880;-0.518;2022-08-03T13:14:46;100364.91;;;26.45;50.33
39435;BME280;30098;51.880;-0.518;2022-08-03T13:17:11;100330.66;;;26.30;50.44
39435;BME280;30098;51.880;-0.518;2022-08-03T13:19:38;100357.09;;;26.47;50.26